Etusivu
METAR-TAF:

METAR-TAF

Lentoasemat :

Kittilän lentoasema

Kittilä, Suomi

Leveyspiiri: 67-42N, Pituuspiiri: 024-51E, korkeus merenpinnasta: 196 m

Tämänhetkinen sää

Tämä raportti tehtiin 16 minuuttia sitten, kello 14.50 UTC
Tuuli 3 kn idästä/kaakosta, vaihdellen koillisen ja etelän välillä
Lämpötila 15°C
Kosteus 63%
Ilmanpaine 1025 hPa
Näkyvyys 10 km tai enemmän
Hajonneita pilviä 4500 ft:n korkeudessa

METAR: EFKT 111450Z AUTO 12003KT 050V180 9999 BKN045 15/08 Q1025

Aika: 18:06 (15:06 UTC)

Sääennuste

Tämä raportti tehtiin 38 minuuttia sitten, kello 14.28 UTC
Ennuste voimassa 11. päivästä klo 15 UTC - 11. päivään klo 18 UTC
Tuuli 3 kn pohjoisesta/koillisesta
Näkyvyys 10 km tai enemmän
Hajonneita pilviä 4500 ft:n korkeudessa

TAF: EFKT 111428Z 1115/1118 03003KT 9999 BKN045

Säähavainnot ja -ennusteet yli 4000 lentoasemalta (METAR- ja TAF-raportit).

Käytössä olevat sääasemat on merkitty karttaan keltaisilla ja punaisilla pisteillä.

Aseta hiiri pisteen päälle nähdäksesi sääaseman nimen.

Klikkaa sitten nähdäksesi säähavainnot ja -ennusteet.

Kartan vaihtaminen: klikkaa mustalla rastilla varustettuja vihreitä pisteitä, niin voit zoomata sisään; viivalla varustettua vihreää pistettä, niin voit zoomata ulos tai vihreitä nuolia, niin pääset viereisille kartoille.


METAR-TAF: